Sierra Vista Municipal Libby Army Air Field
KFHU : now visible

Airfield :











YOU CAN JOIN US ON...

 
LOGIN :

Register | Disclaimer

   EN    FR    IT 

 









Legend :    VFR   Marginal VFR   IFR   Intensive IFR   Very Intensive IFR
Visi :
Ceiling :
>= 8 km
>= 3000ft
5 to 8 km
1000 to 3000 ft
1500m to 5 km
500 to 1000 ft
800 to 1500m
200 to 500 ft
< 800m
< 200 ft
Symbols :   Thunderstorms  Fog  Heavy snow  Heavy precipitations  Wind > 20 kt






- Airport Elevation : 4719 ft
- IATA code : FHU


KFHU - Sierra Vista Municipal Libby Army Air Field

CURRENT METAR :
  • 170055Z AUTO 26018G21KT 10SM CLR 36/M01 A2986 RMK AO2 SLP036 T03551008

EXPIRED METARs :
  • 170015Z AUTO 25016G24KT 10SM CLR 36/M00 A2986 RMK AO2 WSHFT 08 SLP034
  • 162355Z AUTO 29015G20KT 10SM CLR 37/00 A2986 RMK AO2 SLP034 T03660000 10383 20327 57016
  • 162329Z AUTO 27016G22KT 10SM CLR 37/00 A2987 RMK AO2 WSHFT 26 SLP040
  • 162321Z AUTO 29017G23KT 10SM CLR 37/01 A2987 RMK AO2 WSHFT 13 SLP040
  • 162255Z AUTO 27015G21KT 10SM CLR 37/01 A2988 RMK AO2 SLP041 T03720005
  • 162213Z AUTO 26013KT 10SM CLR 38/M01 A2989 RMK AO2 WSHFT 11 SLP039
  • 162155Z AUTO 25014G17KT 10SM CLR 38/M04 A2990 RMK AO2 SLP042 T03771040
  • 162055Z AUTO 29007KT 10SM CLR 37/M03 A2991 RMK AO2 SLP047 T03721026 57024
  • 162052Z AUTO 34007KT 10SM CLR 37/M03 A2991 RMK AO2 SLP047

Expired Forecast.
KZAB FIR / North America



MET'MAP, your aeronautical weather chart ! - Copyright ORBIFLY December 2007 - Disclaimer

ORBIFLY MET'MAP TEAM :

Programming & Development : Alexandra Zaïnal
Original concept : Baudouin d'Aumeries
Technical & hardware support : Manuel Goepfert
Assistance : Marc-Olivier Méhu




SOURCES & CREDITS :

   NOAA       Earth
Advisory